createdAt,value
2023-03-29T00:01:46.047Z,97316.91
2023-03-29T00:03:52.111Z,97332.63
2023-03-29T00:06:03.307Z,97334.66
2023-03-29T00:08:08.404Z,97347.00
2023-03-29T00:10:14.877Z,97341.75
2023-03-29T00:12:19.863Z,97340.13
2023-03-29T00:14:24.690Z,97342.69
2023-03-29T00:16:29.942Z,97338.22
2023-03-29T00:18:34.788Z,97351.56
2023-03-29T00:20:39.640Z,97347.34
2023-03-29T00:22:47.511Z,97342.69
2023-03-29T00:24:56.567Z,97345.06
2023-03-29T00:27:01.760Z,97328.53
2023-03-29T00:29:06.897Z,97319.28
2023-03-29T00:31:13.400Z,97325.91
2023-03-29T00:33:19.280Z,97342.44
2023-03-29T00:35:24.122Z,97348.72
2023-03-29T00:37:30.063Z,97354.19
2023-03-29T00:39:37.854Z,97350.19
2023-03-29T00:41:42.672Z,97342.69
2023-03-29T00:44:06.683Z,97348.59
2023-03-29T00:46:12.204Z,97349.16
2023-03-29T00:48:21.093Z,97341.78
2023-03-29T00:50:29.943Z,97328.91
2023-03-29T00:52:36.137Z,97328.91
2023-03-29T00:54:46.371Z,97325.94
2023-03-29T00:56:53.980Z,97325.38
2023-03-29T00:59:05.060Z,97329.47
2023-03-29T01:01:17.638Z,97332.31
2023-03-29T01:03:27.655Z,97339.84
2023-03-29T01:05:38.211Z,97330.88
2023-03-29T01:07:50.571Z,97335.75
2023-03-29T01:10:06.840Z,97345.09
2023-03-29T01:12:17.339Z,97336.09
2023-03-29T01:14:34.013Z,97335.53
2023-03-29T01:16:41.197Z,97342.00
2023-03-29T01:18:47.212Z,97327.56
2023-03-29T01:21:07.972Z,97323.13
2023-03-29T01:23:31.680Z,97317.53
2023-03-29T01:25:43.149Z,97317.66
2023-03-29T01:27:57.853Z,97309.00
2023-03-29T01:30:06.406Z,97309.00
2023-03-29T01:32:14.775Z,97307.19
2023-03-29T01:34:25.734Z,97306.16
2023-03-29T01:36:35.162Z,97300.13
2023-03-29T01:38:45.456Z,97303.56
2023-03-29T01:40:50.654Z,97296.25
2023-03-29T01:43:07.147Z,97300.47
2023-03-29T01:45:24.606Z,97290.22
2023-03-29T01:47:37.538Z,97290.22
2023-03-29T01:49:45.995Z,97274.50
2023-03-29T01:51:56.465Z,97279.75
2023-03-29T01:54:06.854Z,97272.91
2023-03-29T01:56:15.024Z,97266.88
2023-03-29T01:58:26.627Z,97262.22
2023-03-29T02:00:32.463Z,97253.88
2023-03-29T02:02:37.976Z,97244.19
2023-03-29T02:04:50.288Z,97254.44
2023-03-29T02:06:57.438Z,97256.28
2023-03-29T02:09:03.333Z,97256.84
2023-03-29T02:11:08.800Z,97252.88
2023-03-29T02:13:13.691Z,97251.03
2023-03-29T02:15:23.700Z,97253.44
2023-03-29T02:17:31.035Z,97237.16
2023-03-29T02:19:35.957Z,97222.22
2023-03-29T02:21:48.479Z,97225.44
2023-03-29T02:23:54.906Z,97214.97
2023-03-29T02:25:59.871Z,97215.50
2023-03-29T02:28:04.864Z,97224.16
2023-03-29T02:30:12.721Z,97216.28
2023-03-29T02:32:27.548Z,97222.34
2023-03-29T02:34:37.883Z,97224.16
2023-03-29T02:36:47.615Z,97210.03
2023-03-29T02:38:52.948Z,97212.97
2023-03-29T02:40:59.833Z,97204.09
2023-03-29T02:43:07.158Z,97191.59
2023-03-29T02:45:15.852Z,97191.34
2023-03-29T02:47:27.838Z,97205.47
2023-03-29T02:49:32.909Z,97214.81
2023-03-29T02:51:39.420Z,97201.16
2023-03-29T02:53:47.831Z,97199.44
2023-03-29T02:55:53.053Z,97190.78
2023-03-29T02:57:57.972Z,97186.34
2023-03-29T03:00:10.037Z,97181.66
2023-03-29T03:02:17.761Z,97177.78
2023-03-29T03:04:25.674Z,97167.63
2023-03-29T03:06:30.488Z,97170.81
2023-03-29T03:08:35.371Z,97173.44
2023-03-29T03:10:41.177Z,97161.34
2023-03-29T03:12:46.182Z,97170.25
2023-03-29T03:14:51.076Z,97175.47
2023-03-29T03:16:55.900Z,97170.47
2023-03-29T03:19:01.193Z,97173.88
2023-03-29T03:21:09.857Z,97169.69
2023-03-29T03:23:15.431Z,97166.25
2023-03-29T03:25:22.263Z,97157.38
2023-03-29T03:27:27.945Z,97149.75
2023-03-29T03:29:32.851Z,97152.59
2023-03-29T03:31:44.946Z,97151.81
2023-03-29T03:34:10.005Z,97146.81
2023-03-29T03:36:36.284Z,97146.25
2023-03-29T03:38:41.823Z,97145.44
2023-03-29T03:40:47.093Z,97142.25
2023-03-29T03:42:52.145Z,97146.25
2023-03-29T03:44:57.475Z,97141.25
2023-03-29T03:47:22.404Z,97130.69
2023-03-29T03:49:27.468Z,97122.25
2023-03-29T03:51:32.364Z,97119.97
2023-03-29T03:53:39.959Z,97118.38
2023-03-29T03:56:09.159Z,97124.06
2023-03-29T03:58:26.251Z,97131.59
2023-03-29T04:00:31.483Z,97124.19
2023-03-29T04:02:57.245Z,97119.19
2023-03-29T04:05:03.747Z,97120.78
2023-03-29T04:07:14.477Z,97115.31
2023-03-29T04:09:39.151Z,97113.50
2023-03-29T04:12:14.533Z,97107.22
2023-03-29T04:14:20.757Z,97116.69
2023-03-29T04:16:45.848Z,97111.69
2023-03-29T04:19:14.039Z,97120.31
2023-03-29T04:21:21.283Z,97114.53
2023-03-29T04:23:26.449Z,97115.31
2023-03-29T04:25:34.791Z,97109.31
2023-03-29T04:28:16.391Z,97090.41
2023-03-29T04:30:43.446Z,97094.38
2023-03-29T04:32:58.629Z,97092.00
2023-03-29T04:35:04.979Z,97092.31
2023-03-29T04:37:10.845Z,97080.81
2023-03-29T04:39:18.191Z,97081.38
2023-03-29T04:41:28.052Z,97085.03
2023-03-29T04:43:56.305Z,97069.31
2023-03-29T04:46:07.521Z,97055.97
2023-03-29T04:48:31.797Z,97057.59
2023-03-29T04:50:36.813Z,97058.91
2023-03-29T04:52:42.480Z,97066.00
2023-03-29T04:54:47.734Z,97060.75
2023-03-29T04:57:02.656Z,97072.81
2023-03-29T04:59:26.224Z,97069.50
2023-03-29T05:01:31.670Z,97068.72
2023-03-29T05:03:37.160Z,97070.63
2023-03-29T05:05:50.868Z,97075.38
2023-03-29T05:07:55.750Z,97072.53
2023-03-29T05:10:06.855Z,97077.53
2023-03-29T05:12:14.306Z,97078.06
2023-03-29T05:14:30.240Z,97077.06
2023-03-29T05:16:35.856Z,97067.13
2023-03-29T05:18:41.016Z,97068.97
2023-03-29T05:20:46.009Z,97076.03
2023-03-29T05:22:54.996Z,97067.34
2023-03-29T05:25:20.740Z,97057.13
2023-03-29T05:27:28.256Z,97054.03
2023-03-29T05:29:40.191Z,97053.56
2023-03-29T05:32:02.136Z,97057.75
2023-03-29T05:34:07.438Z,97053.09
2023-03-29T05:36:19.146Z,97054.19
2023-03-29T05:38:27.160Z,97054.53
2023-03-29T05:40:32.403Z,97059.28
2023-03-29T05:42:57.963Z,97053.03
2023-03-29T05:45:03.093Z,97066.44
2023-03-29T05:47:08.143Z,97061.19
2023-03-29T05:49:13.057Z,97055.72
2023-03-29T05:51:35.637Z,97056.53
2023-03-29T05:53:40.662Z,97061.53
2023-03-29T05:55:45.592Z,97062.31
2023-03-29T05:57:52.685Z,97056.03
2023-03-29T06:00:17.016Z,97053.09
2023-03-29T06:02:22.428Z,97054.44
2023-03-29T06:04:31.065Z,97061.81
2023-03-29T06:07:00.501Z,97055.81
2023-03-29T06:09:05.550Z,97056.69
2023-03-29T06:11:31.773Z,97046.97
2023-03-29T06:13:55.586Z,97051.75
2023-03-29T06:16:04.437Z,97051.50
2023-03-29T06:18:09.965Z,97053.09
2023-03-29T06:20:17.265Z,97050.22
2023-03-29T06:22:27.274Z,97039.75
2023-03-29T06:24:32.657Z,97043.25
2023-03-29T06:26:44.348Z,97047.69
2023-03-29T06:28:52.100Z,97046.16
2023-03-29T06:31:03.033Z,97046.97
2023-03-29T06:33:17.066Z,97039.91
2023-03-29T06:35:30.473Z,97057.47
2023-03-29T06:37:49.672Z,97052.53
2023-03-29T06:40:21.807Z,97052.28
2023-03-29T06:42:27.066Z,97056.00
2023-03-29T06:44:55.108Z,97058.72
2023-03-29T06:47:02.418Z,97055.63
2023-03-29T06:49:12.165Z,97064.03
2023-03-29T06:51:31.524Z,97064.56
2023-03-29T06:53:37.191Z,97069.59
2023-03-29T06:55:42.331Z,97070.13
2023-03-29T06:58:13.164Z,97067.75
2023-03-29T07:00:19.843Z,97065.13
2023-03-29T07:02:41.359Z,97067.75
2023-03-29T07:04:52.200Z,97057.03
2023-03-29T07:07:07.936Z,97067.31
2023-03-29T07:09:14.388Z,97069.16
2023-03-29T07:11:45.805Z,97063.91
2023-03-29T07:13:59.797Z,97070.22
2023-03-29T07:16:04.939Z,97071.81
2023-03-29T07:18:36.513Z,97074.44
2023-03-29T07:20:44.036Z,97079.22
2023-03-29T07:22:52.008Z,97077.94
2023-03-29T07:24:57.589Z,97083.03
2023-03-29T07:27:04.679Z,97086.72
2023-03-29T07:29:11.993Z,97084.44
2023-03-29T07:31:18.807Z,97082.66
2023-03-29T07:33:29.657Z,97083.53
2023-03-29T07:35:38.565Z,97078.31
2023-03-29T07:37:48.951Z,97080.22
2023-03-29T07:39:54.453Z,97081.31
2023-03-29T07:42:26.081Z,97084.25
2023-03-29T07:44:33.277Z,97083.53
2023-03-29T07:46:38.628Z,97085.41
2023-03-29T07:48:43.772Z,97085.50
2023-03-29T07:50:51.970Z,97081.06
2023-03-29T07:53:04.413Z,97086.38
2023-03-29T07:55:13.482Z,97081.72
2023-03-29T07:57:38.979Z,97083.38
2023-03-29T07:59:43.889Z,97078.19
2023-03-29T08:01:55.451Z,97070.66
2023-03-29T08:04:06.205Z,97078.06
2023-03-29T08:06:29.702Z,97070.25
2023-03-29T08:08:37.208Z,97068.47
2023-03-29T08:10:48.163Z,97072.19
2023-03-29T08:13:01.200Z,97069.56
2023-03-29T08:15:15.600Z,97065.91
2023-03-29T08:17:21.052Z,97069.63
2023-03-29T08:19:28.376Z,97065.69
2023-03-29T08:21:42.552Z,97065.75
2023-03-29T08:23:50.339Z,97074.72
2023-03-29T08:25:59.738Z,97072.13
2023-03-29T08:28:04.814Z,97070.56
2023-03-29T08:30:18.402Z,97075.34
2023-03-29T08:32:23.609Z,97078.53
2023-03-29T08:34:28.929Z,97081.75
2023-03-29T08:36:55.926Z,97084.66
2023-03-29T08:39:10.248Z,97075.22
2023-03-29T08:41:32.608Z,97072.59
2023-03-29T08:43:55.513Z,97077.41
2023-03-29T08:46:34.396Z,97081.13
2023-03-29T08:48:56.652Z,97083.00
2023-03-29T08:51:08.637Z,97079.59
2023-03-29T08:53:20.588Z,97077.25
2023-03-29T08:55:45.594Z,97071.50
2023-03-29T08:58:15.093Z,97072.53
2023-03-29T09:00:24.589Z,97074.44
2023-03-29T09:02:34.453Z,97076.81
2023-03-29T09:04:44.099Z,97073.94
2023-03-29T09:07:12.320Z,97075.78
2023-03-29T09:09:24.575Z,97076.88
2023-03-29T09:11:49.859Z,97078.97
2023-03-29T09:14:01.292Z,97076.88
2023-03-29T09:16:14.282Z,97079.28
2023-03-29T09:18:29.366Z,97063.47
2023-03-29T09:20:42.812Z,97061.13
2023-03-29T09:22:52.731Z,97068.47
2023-03-29T09:25:07.751Z,97070.91
2023-03-29T09:27:22.830Z,97068.03
2023-03-29T09:29:49.921Z,97061.19
2023-03-29T09:31:58.720Z,97063.34
2023-03-29T09:34:13.708Z,97065.72
2023-03-29T09:36:43.824Z,97063.63
2023-03-29T09:38:54.569Z,97075.47
2023-03-29T09:41:18.237Z,97067.34
2023-03-29T09:43:32.548Z,97072.88
2023-03-29T09:45:41.041Z,97061.81
2023-03-29T09:47:51.807Z,97060.25
2023-03-29T09:50:02.186Z,97052.88
2023-03-29T09:52:11.772Z,97049.72
2023-03-29T09:54:17.563Z,97064.19
2023-03-29T09:56:46.108Z,97055.50
2023-03-29T09:58:57.189Z,97052.84
2023-03-29T10:01:04.750Z,97057.00
2023-03-29T10:03:10.817Z,97056.22
2023-03-29T10:05:29.713Z,97055.16
2023-03-29T10:07:46.454Z,97049.31
2023-03-29T10:09:55.352Z,97051.69
2023-03-29T10:12:03.426Z,97058.00
2023-03-29T10:14:17.075Z,97044.22
2023-03-29T10:16:24.302Z,97045.56
2023-03-29T10:18:29.951Z,97048.47
2023-03-29T10:20:38.792Z,97044.72
2023-03-29T10:22:50.283Z,97035.47
2023-03-29T10:24:57.363Z,97035.47
2023-03-29T10:27:05.410Z,97030.41
2023-03-29T10:29:15.832Z,97021.94
2023-03-29T10:31:22.893Z,97029.88
2023-03-29T10:33:30.708Z,97021.38
2023-03-29T10:35:41.849Z,97024.53
2023-03-29T10:37:52.057Z,97023.75
2023-03-29T10:39:57.552Z,97024.78
2023-03-29T10:42:04.219Z,97026.88
2023-03-29T10:44:09.239Z,97021.56
2023-03-29T10:46:24.580Z,97022.88
2023-03-29T10:48:32.936Z,97019.44
2023-03-29T10:50:39.920Z,97017.03
2023-03-29T10:52:44.861Z,97015.44
2023-03-29T10:54:50.199Z,97010.09
2023-03-29T10:56:58.696Z,97011.13
2023-03-29T10:59:19.640Z,97007.38
2023-03-29T11:01:36.257Z,96999.59
2023-03-29T11:04:10.920Z,97004.19
2023-03-29T11:06:24.754Z,96998.38
2023-03-29T11:08:48.661Z,96993.72
2023-03-29T11:11:02.566Z,97000.03
2023-03-29T11:13:13.672Z,96996.81
2023-03-29T11:15:32.353Z,96992.13
2023-03-29T11:17:55.290Z,96998.09
2023-03-29T11:20:16.600Z,96996.81
2023-03-29T11:22:26.990Z,96989.53
2023-03-29T11:24:47.073Z,96988.47
2023-03-29T11:27:07.424Z,96988.28
2023-03-29T11:29:20.932Z,96994.66
2023-03-29T11:31:38.348Z,96995.84
2023-03-29T11:34:01.494Z,96988.25
2023-03-29T11:36:13.533Z,96991.56
2023-03-29T11:38:26.880Z,96993.25
2023-03-29T11:40:47.552Z,96995.09
2023-03-29T11:42:57.140Z,96985.84
2023-03-29T11:45:05.205Z,96986.13
2023-03-29T11:47:15.786Z,96995.78
2023-03-29T11:49:28.407Z,96989.81
2023-03-29T11:51:38.748Z,96993.28
2023-03-29T11:53:51.933Z,96994.63
2023-03-29T11:55:57.686Z,96988.91
2023-03-29T11:58:08.088Z,96983.78
2023-03-29T12:00:19.118Z,96987.25
2023-03-29T12:02:31.969Z,96984.66
2023-03-29T12:04:44.671Z,96986.63
2023-03-29T12:06:55.928Z,96977.66
2023-03-29T12:09:06.298Z,96981.97
2023-03-29T12:11:17.264Z,96971.44
2023-03-29T12:13:27.425Z,96969.94
2023-03-29T12:15:37.519Z,96968.94
2023-03-29T12:17:47.754Z,96968.22
2023-03-29T12:20:04.676Z,96965.38
2023-03-29T12:22:12.044Z,96961.44
2023-03-29T12:24:23.707Z,96962.78
2023-03-29T12:26:47.273Z,96964.44
2023-03-29T12:29:03.861Z,96960.66
2023-03-29T12:31:19.671Z,96967.81
2023-03-29T12:33:46.704Z,96960.13
2023-03-29T12:36:33.648Z,96955.41
2023-03-29T13:00:52.773Z,96943.72
2023-03-29T13:12:55.373Z,96935.03
2023-03-29T13:19:09.159Z,96939.31
2023-03-29T13:25:17.449Z,96936.41
2023-03-29T13:27:32.334Z,96931.28
2023-03-29T13:29:59.107Z,96933.34
2023-03-29T13:32:16.325Z,96929.63
2023-03-29T13:34:34.043Z,96933.06
2023-03-29T13:36:52.467Z,96922.94
2023-03-29T13:43:16.082Z,96922.34
2023-03-29T13:45:29.295Z,96917.53
2023-03-29T13:48:04.727Z,96919.50
2023-03-29T13:50:18.735Z,96917.06
2023-03-29T13:52:29.457Z,96925.50
2023-03-29T13:54:40.204Z,96918.81
2023-03-29T13:57:00.946Z,96913.22
2023-03-29T13:59:13.698Z,96914.50
2023-03-29T14:01:28.820Z,96910.25
2023-03-29T14:03:43.068Z,96910.78
2023-03-29T14:05:54.109Z,96905.94
2023-03-29T14:07:59.576Z,96898.47
2023-03-29T14:10:05.341Z,96905.06
2023-03-29T15:12:20.196Z,96873.41
2023-03-29T15:14:27.120Z,96871.72
2023-03-29T15:16:33.632Z,96870.63
2023-03-29T15:18:41.929Z,96859.72
2023-03-29T15:20:47.638Z,96859.44
2023-03-29T15:22:58.779Z,96870.03
2023-03-29T15:25:04.192Z,96870.03
2023-03-29T15:27:17.628Z,96868.75
2023-03-29T15:29:26.210Z,96868.38
2023-03-29T15:31:38.107Z,96868.09
2023-03-29T15:33:44.564Z,96862.97
2023-03-29T15:35:54.210Z,96860.63
2023-03-29T15:37:59.160Z,96852.06
2023-03-29T15:40:07.996Z,96861.59
2023-03-29T15:42:13.671Z,96852.06
2023-03-29T15:44:20.292Z,96854.41
2023-03-29T15:46:27.771Z,96851.75
2023-03-29T15:48:34.367Z,96853.03
2023-03-29T15:50:39.322Z,96848.03
2023-03-29T15:52:44.507Z,96844.31
2023-03-29T15:54:49.560Z,96850.69
2023-03-29T15:56:57.318Z,96849.91
2023-03-29T15:59:02.231Z,96843.03
2023-03-29T16:01:16.158Z,96839.56
2023-03-29T16:03:24.807Z,96841.44
2023-03-29T16:05:29.662Z,96850.19
2023-03-29T16:07:34.429Z,96838.78
2023-03-29T16:09:39.542Z,96836.44
2023-03-29T16:11:46.307Z,96840.16
2023-03-29T16:13:51.340Z,96839.38
2023-03-29T16:15:57.275Z,96849.22
2023-03-29T16:18:02.300Z,96851.38
2023-03-29T16:20:15.074Z,96848.22
2023-03-29T16:22:20.187Z,96847.47
2023-03-29T16:24:27.284Z,96848.03
2023-03-29T16:26:32.802Z,96844.09
2023-03-29T16:28:37.965Z,96842.78
2023-03-29T16:30:43.258Z,96826.88
2023-03-29T16:32:48.339Z,96839.63
2023-03-29T16:34:53.799Z,96839.63
2023-03-29T16:37:01.181Z,96846.03
2023-03-29T16:39:06.298Z,96839.75
2023-03-29T16:41:13.336Z,96840.81
2023-03-29T16:43:19.024Z,96845.13
2023-03-29T16:45:23.824Z,96843.88
2023-03-29T16:47:29.537Z,96848.66
2023-03-29T16:49:34.783Z,96839.22
2023-03-29T16:51:40.105Z,96847.25
2023-03-29T16:53:48.033Z,96838.34
2023-03-29T16:55:53.106Z,96829.69
2023-03-29T16:57:58.289Z,96850.09
2023-03-29T17:00:04.080Z,96835.06
2023-03-29T17:02:08.976Z,96847.31
2023-03-29T17:04:14.358Z,96849.28
2023-03-29T17:06:19.321Z,96851.72
2023-03-29T17:08:24.832Z,96856.03
2023-03-29T17:10:32.573Z,96851.59
2023-03-29T17:12:38.018Z,96854.53
2023-03-29T17:14:43.068Z,96848.75
2023-03-29T17:16:48.534Z,96850.13
2023-03-29T17:18:53.384Z,96843.03
2023-03-29T17:21:01.825Z,96848.09
2023-03-29T17:23:06.616Z,96844.97
2023-03-29T17:25:12.811Z,96852.13
2023-03-29T17:27:21.298Z,96843.19
2023-03-29T17:29:26.620Z,96850.13
2023-03-29T17:31:31.482Z,96850.44
2023-03-29T17:33:36.506Z,96851.28
2023-03-29T17:35:41.320Z,96839.69
2023-03-29T17:37:46.581Z,96844.75
2023-03-29T17:39:51.928Z,96840.03
2023-03-29T17:41:57.058Z,96850.44
2023-03-29T17:44:05.145Z,96847.81
2023-03-29T17:46:10.573Z,96848.97
2023-03-29T17:48:15.357Z,96847.09
2023-03-29T17:50:21.416Z,96845.53
2023-03-29T17:52:27.827Z,96849.53
2023-03-29T17:54:32.742Z,96853.25
2023-03-29T17:56:37.624Z,96856.19
2023-03-29T17:58:42.836Z,96855.69
2023-03-29T18:00:50.355Z,96856.28
2023-03-29T18:02:55.515Z,96854.97
2023-03-29T18:05:01.856Z,96860.56
2023-03-29T18:07:06.700Z,96865.84
2023-03-29T18:09:11.749Z,96864.25
2023-03-29T18:11:22.186Z,96861.63
2023-03-29T18:13:27.600Z,96852.91
2023-03-29T18:15:32.536Z,96847.88
2023-03-29T18:17:40.332Z,96844.16
2023-03-29T18:19:45.290Z,96853.38
2023-03-29T18:21:50.128Z,96841.44
2023-03-29T18:23:57.019Z,96839.28
2023-03-29T18:26:03.233Z,96845.38
2023-03-29T18:28:08.525Z,96860.19
2023-03-29T18:30:16.918Z,96854.88
2023-03-29T18:32:21.945Z,96855.19
2023-03-29T18:34:29.661Z,96856.53
2023-03-29T18:36:34.808Z,96862.91
2023-03-29T18:38:40.711Z,96861.63
2023-03-29T18:40:45.844Z,96862.97
2023-03-29T18:42:50.774Z,96856.13
2023-03-29T18:44:55.792Z,96851.88
2023-03-29T18:47:00.592Z,96859.06
2023-03-29T18:49:07.807Z,96868.06
2023-03-29T18:51:16.240Z,96875.72
2023-03-29T18:53:21.654Z,96877.59
2023-03-29T18:55:26.696Z,96880.47
2023-03-29T18:57:31.616Z,96875.47
2023-03-29T18:59:36.862Z,96881.88
2023-03-29T19:01:41.802Z,96888.72
2023-03-29T19:03:47.184Z,96876.28
2023-03-29T19:05:55.521Z,96882.34
2023-03-29T19:08:04.684Z,96863.03
2023-03-29T19:10:12.273Z,96874.41
2023-03-29T19:12:17.026Z,96880.00
2023-03-29T19:14:24.331Z,96873.91
2023-03-29T19:16:29.692Z,96873.13
2023-03-29T19:18:35.888Z,96874.78
2023-03-29T19:20:41.476Z,96871.59
2023-03-29T19:22:46.278Z,96878.53
2023-03-29T19:24:53.735Z,96869.09
2023-03-29T19:26:58.673Z,96882.38
2023-03-29T19:29:03.820Z,96890.38
2023-03-29T19:31:08.945Z,96890.16
2023-03-29T19:33:14.716Z,96891.50
2023-03-29T19:35:20.038Z,96888.84
2023-03-29T19:37:24.880Z,96884.63
2023-03-29T19:39:30.080Z,96883.59
2023-03-29T19:41:38.554Z,96875.16
2023-03-29T19:43:44.504Z,96864.06
2023-03-29T19:45:50.941Z,96861.41
2023-03-29T19:47:56.946Z,96867.00
2023-03-29T19:50:02.047Z,96867.50
2023-03-29T19:52:07.063Z,96859.56
2023-03-29T19:54:12.957Z,96858.78
2023-03-29T19:56:18.276Z,96854.56
2023-03-29T19:58:26.243Z,96851.41
2023-03-29T20:00:32.253Z,96849.84
2023-03-29T20:02:37.875Z,96841.66
2023-03-29T20:04:43.007Z,96843.28
2023-03-29T20:06:48.058Z,96835.44
2023-03-29T20:08:53.112Z,96837.56
2023-03-29T20:11:03.002Z,96833.09
2023-03-29T20:13:08.793Z,96831.81
2023-03-29T20:15:16.551Z,96827.34
2023-03-29T20:17:21.516Z,96831.09
2023-03-29T20:19:27.061Z,96831.38
2023-03-29T20:21:33.838Z,96830.34
2023-03-29T20:23:39.168Z,96827.97
2023-03-29T20:25:44.521Z,96827.75
2023-03-29T20:27:49.654Z,96820.38
2023-03-29T20:29:54.770Z,96824.34
2023-03-29T20:32:02.202Z,96812.72
2023-03-29T20:34:07.219Z,96834.44
2023-03-29T20:36:12.317Z,96819.66
2023-03-29T20:38:18.218Z,96815.44
2023-03-29T20:40:23.129Z,96814.94
2023-03-29T20:42:29.868Z,96810.97
2023-03-29T20:44:35.474Z,96813.63
2023-03-29T20:46:54.453Z,96815.75
2023-03-29T20:49:02.288Z,96821.31
2023-03-29T20:51:10.283Z,96825.31
2023-03-29T20:53:15.465Z,96830.63
2023-03-29T20:55:22.479Z,96828.28
2023-03-29T20:57:29.222Z,96820.63
2023-03-29T20:59:35.829Z,96821.69
2023-03-29T21:01:42.548Z,96817.19
2023-03-29T21:03:47.518Z,96804.75
2023-03-29T21:05:58.418Z,96806.34
2023-03-29T21:08:04.468Z,96794.19
2023-03-29T21:10:11.551Z,96794.19
2023-03-29T21:12:16.898Z,96790.50
2023-03-29T21:14:22.697Z,96791.28
2023-03-29T21:16:29.157Z,96793.91
2023-03-29T21:18:34.173Z,96786.75
2023-03-29T21:20:40.472Z,96785.72
2023-03-29T21:22:47.826Z,96785.44
2023-03-29T21:24:52.616Z,96783.03
2023-03-29T21:26:57.451Z,96783.53
2023-03-29T21:29:02.294Z,96777.19
2023-03-29T21:31:08.019Z,96774.53
2023-03-29T21:33:13.262Z,96776.09
2023-03-29T21:35:17.990Z,96775.81
2023-03-29T21:37:22.845Z,96779.28
2023-03-29T21:39:31.569Z,96773.69
2023-03-29T21:41:36.864Z,96775.00
2023-03-29T21:43:41.896Z,96775.50
2023-03-29T21:45:46.748Z,96769.94
2023-03-29T21:47:51.557Z,96770.19
2023-03-29T21:49:56.574Z,96775.97
2023-03-29T21:52:01.388Z,96772.53
2023-03-29T21:54:06.761Z,96765.38
2023-03-29T21:56:14.923Z,96757.47
2023-03-29T21:58:20.427Z,96769.66
2023-03-29T22:00:25.430Z,96765.38
2023-03-29T22:02:30.428Z,96771.47
2023-03-29T22:04:37.125Z,96759.84
2023-03-29T22:06:42.579Z,96761.16
2023-03-29T22:08:49.681Z,96759.00
2023-03-29T22:10:57.037Z,96748.66
2023-03-29T22:13:04.439Z,96739.16
2023-03-29T22:15:10.979Z,96741.50
2023-03-29T22:17:16.190Z,96744.16
2023-03-29T22:19:21.251Z,96742.56
2023-03-29T22:21:28.719Z,96745.22
2023-03-29T22:23:33.884Z,96738.38
2023-03-29T22:25:40.057Z,96741.31
2023-03-29T22:27:46.090Z,96743.13
2023-03-29T22:29:53.500Z,96747.66
2023-03-29T22:31:58.372Z,96740.50
2023-03-29T22:34:03.477Z,96734.16
2023-03-29T22:36:16.139Z,96733.63
2023-03-29T22:38:21.588Z,96734.72
2023-03-29T22:40:26.473Z,96726.25
2023-03-29T22:42:31.736Z,96726.53
2023-03-29T22:44:36.732Z,96724.97
2023-03-29T22:46:44.132Z,96726.03
2023-03-29T22:48:49.147Z,96726.78
2023-03-29T22:50:53.898Z,96723.91
2023-03-29T22:52:58.735Z,96723.09
2023-03-29T22:55:03.501Z,96712.81
2023-03-29T22:57:08.326Z,96719.66
2023-03-29T22:59:13.089Z,96722.06
2023-03-29T23:01:17.910Z,96720.97
2023-03-29T23:03:25.649Z,96723.63
2023-03-29T23:05:30.461Z,96726.78
2023-03-29T23:07:36.933Z,96718.56
2023-03-29T23:09:41.749Z,96724.34
2023-03-29T23:11:46.479Z,96707.44
2023-03-29T23:13:52.670Z,96694.97
2023-03-29T23:15:59.275Z,96694.22
2023-03-29T23:18:04.961Z,96689.22
2023-03-29T23:20:14.101Z,96693.97
2023-03-29T23:22:18.906Z,96701.91
2023-03-29T23:24:23.677Z,96695.84
2023-03-29T23:26:28.745Z,96699.25
2023-03-29T23:28:34.899Z,96693.97
2023-03-29T23:30:40.520Z,96692.41
2023-03-29T23:32:45.325Z,96690.84
2023-03-29T23:34:50.270Z,96685.53
2023-03-29T23:36:57.670Z,96687.69
2023-03-29T23:39:02.557Z,96682.41
2023-03-29T23:41:10.554Z,96682.66
2023-03-29T23:43:17.239Z,96686.38
2023-03-29T23:45:22.260Z,96679.22
2023-03-29T23:47:28.994Z,96683.44
2023-03-29T23:49:34.025Z,96684.78
2023-03-29T23:51:39.334Z,96676.84
2023-03-29T23:53:46.783Z,96672.63
2023-03-29T23:55:51.875Z,96669.69
2023-03-29T23:57:56.769Z,96672.03
